Terminal Aerodrome Forecast
Issued by NWS

Home | Current Version | Previous Version | Text Only | Print | Product List | Glossary On
Versions: 1 2 3 4 5 6 7 8 9 10 11 12 13 14 15 16 17 18 19 20 21 22 23 24 25 26 27
000
FTUS45 KGJT 312329
TAFCNY
TAF
KCNY 312329Z 0100/0124 25007KT P6SM SCT110
     FM010300 19007KT P6SM SKC
     FM011500 14004KT P6SM SKC
     FM011900 17006KT P6SM FEW110 SCT250
     FM012200 22009KT P6SM SCT110 BKN250=

USA.gov is the U.S. government's official web portal to all federal, state and local government web resources and services.